Time,TemperatureF,DewpointF,PressureIn,WindDirection,WindDirectionDegrees,WindSpeedMPH,WindSpeedGustMPH,Humidity,HourlyPrecipIn,Conditions,Clouds,dailyrainin,SoftwareType,DateUTC
2013-11-29 00:00:00,18.9,17.0,30.12,NNW,336,0.0,4.0,92,0.00,,,0.00,Wunderground v.1.15,2013-11-29 05:00:00,
2013-11-29 00:05:00,18.9,17.0,30.12,NNW,336,0.0,4.0,92,0.00,,,0.00,Wunderground v.1.15,2013-11-29 05:05:00,
2013-11-29 00:10:00,19.0,17.1,30.12,NNW,336,0.0,4.0,92,0.00,,,0.00,Wunderground v.1.15,2013-11-29 05:10:00,
2013-11-29 00:15:00,19.0,17.1,30.12,NNW,336,0.0,4.0,92,0.00,,,0.00,Wunderground v.1.15,2013-11-29 05:15:00,
2013-11-29 00:20:00,19.0,17.3,30.12,NNW,336,0.0,4.0,93,0.00,,,0.00,Wunderground v.1.15,2013-11-29 05:20:00,
2013-11-29 00:25:00,19.1,17.4,30.12,NNW,336,0.0,4.0,93,0.00,,,0.00,Wunderground v.1.15,2013-11-29 05:25:00,
2013-11-29 00:30:00,19.0,17.3,30.12,NNW,336,0.0,4.0,93,0.00,,,0.00,Wunderground v.1.15,2013-11-29 05:30:00,
2013-11-29 00:35:00,19.1,17.4,30.12,NNW,336,0.0,4.0,93,0.00,,,0.00,Wunderground v.1.15,2013-11-29 05:35:00,
2013-11-29 00:40:00,19.1,17.4,30.12,NNW,336,0.0,4.0,93,0.00,,,0.00,Wunderground v.1.15,2013-11-29 05:40:00,
2013-11-29 00:45:00,19.1,17.4,30.12,NNW,336,0.0,4.0,93,0.00,,,0.00,Wunderground v.1.15,2013-11-29 05:45:00,
2013-11-29 00:50:00,19.1,17.4,30.12,NNW,336,0.0,4.0,93,0.00,,,0.00,Wunderground v.1.15,2013-11-29 05:50:00,
2013-11-29 00:55:00,19.2,17.5,30.12,NNW,336,0.0,4.0,93,0.00,,,0.00,Wunderground v.1.15,2013-11-29 05:55:00,
2013-11-29 01:00:00,19.2,17.5,30.12,NNW,336,0.0,4.0,93,0.00,,,0.00,Wunderground v.1.15,2013-11-29 06:00:00,
2013-11-29 01:05:00,19.2,17.5,30.12,NNW,336,0.0,4.0,93,0.00,,,0.00,Wunderground v.1.15,2013-11-29 06:05:00,
2013-11-29 01:10:00,19.2,17.5,30.12,NNW,336,0.0,4.0,93,0.00,,,0.00,Wunderground v.1.15,2013-11-29 06:10:00,
2013-11-29 01:15:00,19.2,17.5,30.12,NNW,336,0.0,4.0,93,0.00,,,0.00,Wunderground v.1.15,2013-11-29 06:15:00,
2013-11-29 01:20:00,19.3,17.6,30.12,NNW,336,0.0,4.0,93,0.00,,,0.00,Wunderground v.1.15,2013-11-29 06:20:00,
2013-11-29 01:25:00,19.3,17.6,30.13,NNW,336,0.0,4.0,93,0.00,,,0.00,Wunderground v.1.15,2013-11-29 06:25:00,
2013-11-29 01:30:00,19.3,17.6,30.13,NNW,336,0.0,4.0,93,0.00,,,0.00,Wunderground v.1.15,2013-11-29 06:30:00,
2013-11-29 01:35:00,19.3,17.6,30.13,NNW,336,0.0,4.0,93,0.00,,,0.00,Wunderground v.1.15,2013-11-29 06:35:00,
2013-11-29 01:40:00,19.3,17.6,30.13,NNW,336,0.0,4.0,93,0.00,,,0.00,Wunderground v.1.15,2013-11-29 06:40:00,
2013-11-29 01:45:00,19.3,17.6,30.13,NNW,336,0.0,4.0,93,0.00,,,0.00,Wunderground v.1.15,2013-11-29 06:45:00,
2013-11-29 01:50:00,19.3,17.6,30.13,NNW,336,0.0,4.0,93,0.00,,,0.00,Wunderground v.1.15,2013-11-29 06:50:00,
2013-11-29 01:56:00,19.3,17.6,30.13,NNW,336,0.0,4.0,93,0.00,,,0.00,Wunderground v.1.15,2013-11-29 06:56:00,
2013-11-29 02:01:00,19.3,17.6,30.13,NNW,336,0.0,4.0,93,0.00,,,0.00,Wunderground v.1.15,2013-11-29 07:01:00,
2013-11-29 02:06:00,19.2,17.5,30.14,NNW,336,0.0,4.0,93,0.00,,,0.00,Wunderground v.1.15,2013-11-29 07:06:00,
2013-11-29 02:11:00,19.1,17.4,30.14,NNW,336,0.0,4.0,93,0.00,,,0.00,Wunderground v.1.15,2013-11-29 07:11:00,
2013-11-29 02:16:00,19.1,17.4,30.14,NNW,336,0.0,4.0,93,0.00,,,0.00,Wunderground v.1.15,2013-11-29 07:16:00,
2013-11-29 02:21:00,19.1,17.4,30.14,NNW,336,0.0,4.0,93,0.00,,,0.00,Wunderground v.1.15,2013-11-29 07:21:00,
2013-11-29 02:31:00,19.1,17.4,30.14,NNW,336,0.0,4.0,93,0.00,,,0.00,Wunderground v.1.15,2013-11-29 07:31:00,
2013-11-29 02:36:00,19.0,17.3,30.14,NNW,336,0.0,4.0,93,0.00,,,0.00,Wunderground v.1.15,2013-11-29 07:36:00,
2013-11-29 02:41:00,19.0,17.3,30.14,NNW,336,0.0,4.0,93,0.00,,,0.00,Wunderground v.1.15,2013-11-29 07:41:00,
2013-11-29 02:46:00,19.0,17.3,30.14,NNW,336,0.0,4.0,93,0.00,,,0.00,Wunderground v.1.15,2013-11-29 07:46:00,
2013-11-29 02:51:00,18.9,17.2,30.14,NNW,336,0.0,4.0,93,0.00,,,0.00,Wunderground v.1.15,2013-11-29 07:51:00,
2013-11-29 02:56:00,18.8,17.1,30.14,NNW,336,0.0,4.0,93,0.00,,,0.00,Wunderground v.1.15,2013-11-29 07:56:00,
2013-11-29 03:01:00,18.7,17.0,30.14,NNW,336,0.0,4.0,93,0.00,,,0.00,Wunderground v.1.15,2013-11-29 08:01:00,
2013-11-29 03:06:00,18.6,16.9,30.14,NNW,336,0.0,4.0,93,0.00,,,0.00,Wunderground v.1.15,2013-11-29 08:06:00,
2013-11-29 03:11:00,18.4,16.7,30.14,NNW,336,0.0,4.0,93,0.00,,,0.00,Wunderground v.1.15,2013-11-29 08:11:00,
2013-11-29 03:16:00,18.5,16.8,30.14,NNW,336,0.0,4.0,93,0.00,,,0.00,Wunderground v.1.15,2013-11-29 08:16:00,
2013-11-29 03:21:00,18.6,16.9,30.14,NNW,336,0.0,4.0,93,0.00,,,0.00,Wunderground v.1.15,2013-11-29 08:21:00,
2013-11-29 03:26:00,18.5,16.8,30.14,NNW,336,0.0,4.0,93,0.00,,,0.00,Wunderground v.1.15,2013-11-29 08:26:00,
2013-11-29 03:30:00,18.5,16.8,30.14,NNW,336,0.0,4.0,93,0.00,,,0.00,Wunderground v.1.15,2013-11-29 08:30:00,
2013-11-29 03:35:00,18.6,16.9,30.14,NNW,336,0.0,4.0,93,0.00,,,0.00,Wunderground v.1.15,2013-11-29 08:35:00,
2013-11-29 03:40:00,18.7,17.3,30.14,NNW,336,0.0,4.0,94,0.00,,,0.00,Wunderground v.1.15,2013-11-29 08:40:00,
2013-11-29 03:45:00,18.8,17.4,30.14,NNW,336,0.0,4.0,94,0.00,,,0.00,Wunderground v.1.15,2013-11-29 08:45:00,
2013-11-29 03:51:00,18.8,17.4,30.14,NNW,336,0.0,4.0,94,0.00,,,0.00,Wunderground v.1.15,2013-11-29 08:51:00,
2013-11-29 03:56:00,18.8,17.4,30.14,NNW,336,0.0,4.0,94,0.00,,,0.00,Wunderground v.1.15,2013-11-29 08:56:00,
2013-11-29 04:05:00,18.9,17.5,30.14,NNW,336,0.0,4.0,94,0.00,,,0.00,Wunderground v.1.15,2013-11-29 09:05:00,
2013-11-29 04:10:00,18.9,17.5,30.14,NNW,336,0.0,4.0,94,0.00,,,0.00,Wunderground v.1.15,2013-11-29 09:10:00,
2013-11-29 04:15:00,18.9,17.5,30.15,NNW,336,0.0,4.0,94,0.00,,,0.00,Wunderground v.1.15,2013-11-29 09:15:00,
2013-11-29 04:20:00,18.9,17.5,30.14,NNW,336,0.0,4.0,94,0.00,,,0.00,Wunderground v.1.15,2013-11-29 09:20:00,
2013-11-29 04:25:00,18.8,17.4,30.14,NNW,336,0.0,4.0,94,0.00,,,0.00,Wunderground v.1.15,2013-11-29 09:25:00,
2013-11-29 04:31:00,18.8,17.4,30.14,NNW,336,0.0,4.0,94,0.00,,,0.00,Wunderground v.1.15,2013-11-29 09:31:00,
2013-11-29 04:35:00,18.7,17.0,30.15,NNW,336,0.0,4.0,93,0.00,,,0.00,Wunderground v.1.15,2013-11-29 09:35:00,
2013-11-29 04:40:00,18.5,16.8,30.15,NNW,336,0.0,4.0,93,0.00,,,0.00,Wunderground v.1.15,2013-11-29 09:40:00,
2013-11-29 04:45:00,18.4,16.7,30.15,NNW,336,0.0,4.0,93,0.00,,,0.00,Wunderground v.1.15,2013-11-29 09:45:00,
2013-11-29 04:50:00,18.4,17.0,30.15,NNW,336,0.0,4.0,94,0.00,,,0.00,Wunderground v.1.15,2013-11-29 09:50:00,
2013-11-29 04:55:00,18.5,17.1,30.15,NNW,336,0.0,4.0,94,0.00,,,0.00,Wunderground v.1.15,2013-11-29 09:55:00,
2013-11-29 05:00:00,18.6,17.2,30.15,NNW,336,0.0,4.0,94,0.00,,,0.00,Wunderground v.1.15,2013-11-29 10:00:00,
2013-11-29 05:05:00,18.6,17.2,30.15,NNW,336,0.0,4.0,94,0.00,,,0.00,Wunderground v.1.15,2013-11-29 10:05:00,
2013-11-29 05:10:00,18.7,17.3,30.16,NNW,336,0.0,4.0,94,0.00,,,0.00,Wunderground v.1.15,2013-11-29 10:10:00,
2013-11-29 05:15:00,18.8,17.4,30.16,NNW,336,0.0,4.0,94,0.00,,,0.00,Wunderground v.1.15,2013-11-29 10:15:00,
2013-11-29 05:20:00,18.8,17.4,30.16,NNW,336,0.0,4.0,94,0.00,,,0.00,Wunderground v.1.15,2013-11-29 10:20:00,
2013-11-29 05:25:00,18.8,17.4,30.16,NNW,336,0.0,4.0,94,0.00,,,0.00,Wunderground v.1.15,2013-11-29 10:25:00,
2013-11-29 05:30:00,18.9,17.5,30.16,NNW,336,0.0,4.0,94,0.00,,,0.00,Wunderground v.1.15,2013-11-29 10:30:00,
2013-11-29 05:35:00,19.0,17.6,30.16,NNW,336,0.0,4.0,94,0.00,,,0.00,Wunderground v.1.15,2013-11-29 10:35:00,
2013-11-29 05:40:00,19.0,17.6,30.17,NNW,336,0.0,4.0,94,0.00,,,0.00,Wunderground v.1.15,2013-11-29 10:40:00,
2013-11-29 05:45:00,18.9,17.5,30.17,NNW,336,0.0,4.0,94,0.00,,,0.00,Wunderground v.1.15,2013-11-29 10:45:00,
2013-11-29 05:50:00,18.9,17.5,30.17,NNW,336,0.0,4.0,94,0.00,,,0.00,Wunderground v.1.15,2013-11-29 10:50:00,
2013-11-29 05:55:00,18.8,17.4,30.17,NNW,336,0.0,4.0,94,0.00,,,0.00,Wunderground v.1.15,2013-11-29 10:55:00,
2013-11-29 06:00:00,18.7,17.0,30.17,NNW,336,0.0,4.0,93,0.00,,,0.00,Wunderground v.1.15,2013-11-29 11:00:00,
2013-11-29 06:05:00,18.6,16.9,30.17,NNW,336,0.0,4.0,93,0.00,,,0.00,Wunderground v.1.15,2013-11-29 11:05:00,
2013-11-29 06:11:00,18.5,16.8,30.18,NNW,336,0.0,4.0,93,0.00,,,0.00,Wunderground v.1.15,2013-11-29 11:11:00,
2013-11-29 06:16:00,18.5,16.8,30.18,NNW,336,0.0,4.0,93,0.00,,,0.00,Wunderground v.1.15,2013-11-29 11:16:00,
2013-11-29 06:21:00,18.5,16.8,30.18,NNW,336,0.0,4.0,93,0.00,,,0.00,Wunderground v.1.15,2013-11-29 11:21:00,
2013-11-29 06:26:00,18.4,16.7,30.18,NNW,336,0.0,4.0,93,0.00,,,0.00,Wunderground v.1.15,2013-11-29 11:26:00,
2013-11-29 06:31:00,18.3,16.6,30.18,NNW,336,0.0,4.0,93,0.00,,,0.00,Wunderground v.1.15,2013-11-29 11:31:00,
2013-11-29 06:36:00,18.1,16.4,30.18,NNW,336,0.0,4.0,93,0.00,,,0.00,Wunderground v.1.15,2013-11-29 11:36:00,
2013-11-29 06:41:00,17.9,16.2,30.19,NNW,336,0.0,4.0,93,0.00,,,0.00,Wunderground v.1.15,2013-11-29 11:41:00,
2013-11-29 06:46:00,17.7,16.0,30.19,NNW,336,0.0,4.0,93,0.00,,,0.00,Wunderground v.1.15,2013-11-29 11:46:00,
2013-11-29 06:51:00,17.5,15.8,30.19,NNW,336,0.0,4.0,93,0.00,,,0.00,Wunderground v.1.15,2013-11-29 11:51:00,
2013-11-29 06:56:00,17.6,15.9,30.20,NNW,336,0.0,4.0,93,0.00,,,0.00,Wunderground v.1.15,2013-11-29 11:56:00,
2013-11-29 07:01:00,17.7,16.0,30.20,NNW,336,0.0,4.0,93,0.00,,,0.00,Wunderground v.1.15,2013-11-29 12:01:00,
2013-11-29 07:06:00,17.8,16.4,30.20,NNW,336,0.0,4.0,94,0.00,,,0.00,Wunderground v.1.15,2013-11-29 12:06:00,
2013-11-29 07:11:00,17.7,16.0,30.20,NNW,336,0.0,4.0,93,0.00,,,0.00,Wunderground v.1.15,2013-11-29 12:11:00,
2013-11-29 07:21:00,17.6,15.9,30.21,NNW,336,0.0,4.0,93,0.00,,,0.00,Wunderground v.1.15,2013-11-29 12:21:00,
2013-11-29 07:26:00,17.7,16.0,30.21,NNW,336,0.0,4.0,93,0.00,,,0.00,Wunderground v.1.15,2013-11-29 12:26:00,
2013-11-29 07:31:00,17.7,16.0,30.22,NNW,336,0.0,4.0,93,0.00,,,0.00,Wunderground v.1.15,2013-11-29 12:31:00,
2013-11-29 07:36:00,17.9,16.5,30.22,NNW,336,0.0,4.0,94,0.00,,,0.00,Wunderground v.1.15,2013-11-29 12:36:00,
2013-11-29 07:41:00,18.1,16.7,30.22,NNW,336,0.0,4.0,94,0.00,,,0.00,Wunderground v.1.15,2013-11-29 12:41:00,
2013-11-29 07:45:00,18.4,17.0,30.23,NNW,336,0.0,4.0,94,0.00,,,0.00,Wunderground v.1.15,2013-11-29 12:45:00,
2013-11-29 07:50:00,18.5,17.1,30.23,NNW,336,0.0,4.0,94,0.00,,,0.00,Wunderground v.1.15,2013-11-29 12:50:00,
2013-11-29 07:55:00,18.7,17.3,30.23,NNW,336,0.0,4.0,94,0.00,,,0.00,Wunderground v.1.15,2013-11-29 12:55:00,
2013-11-29 08:00:00,18.9,17.5,30.23,NNW,336,0.0,4.0,94,0.00,,,0.00,Wunderground v.1.15,2013-11-29 13:00:00,
2013-11-29 08:05:00,18.9,17.5,30.24,NNW,336,0.0,4.0,94,0.00,,,0.00,Wunderground v.1.15,2013-11-29 13:05:00,
2013-11-29 08:10:00,19.0,17.6,30.24,NNW,336,0.0,4.0,94,0.00,,,0.00,Wunderground v.1.15,2013-11-29 13:10:00,
2013-11-29 08:15:00,19.1,17.7,30.24,NNW,336,0.0,4.0,94,0.00,,,0.00,Wunderground v.1.15,2013-11-29 13:15:00,
2013-11-29 08:20:00,19.1,17.4,30.25,NNW,336,0.0,4.0,93,0.00,,,0.00,Wunderground v.1.15,2013-11-29 13:20:00,
2013-11-29 08:25:00,19.1,17.4,30.25,NNW,336,0.0,4.0,93,0.00,,,0.00,Wunderground v.1.15,2013-11-29 13:25:00,
2013-11-29 08:30:00,19.1,17.4,30.25,NNW,336,0.0,4.0,93,0.00,,,0.00,Wunderground v.1.15,2013-11-29 13:30:00,
2013-11-29 08:35:00,19.2,17.5,30.25,NNW,336,0.0,4.0,93,0.00,,,0.00,Wunderground v.1.15,2013-11-29 13:35:00,
2013-11-29 08:40:00,19.2,17.8,30.25,NNW,336,0.0,4.0,94,0.00,,,0.00,Wunderground v.1.15,2013-11-29 13:40:00,
2013-11-29 08:45:00,19.5,18.1,30.25,NNW,336,0.0,4.0,94,0.00,,,0.00,Wunderground v.1.15,2013-11-29 13:45:00,
2013-11-29 08:50:00,19.7,18.0,30.26,NNW,336,0.0,4.0,93,0.00,,,0.00,Wunderground v.1.15,2013-11-29 13:50:00,
2013-11-29 08:55:00,19.7,18.0,30.26,NNW,336,0.0,4.0,93,0.00,,,0.00,Wunderground v.1.15,2013-11-29 13:55:00,
2013-11-29 09:00:00,19.9,18.5,30.26,NNW,336,0.0,4.0,94,0.00,,,0.00,Wunderground v.1.15,2013-11-29 14:00:00,
2013-11-29 09:05:00,20.1,18.4,30.26,NNW,336,0.0,4.0,93,0.00,,,0.00,Wunderground v.1.15,2013-11-29 14:05:00,
2013-11-29 09:10:00,20.4,18.7,30.27,NNW,336,0.0,4.0,93,0.00,,,0.00,Wunderground v.1.15,2013-11-29 14:10:00,
2013-11-29 09:15:00,20.6,18.9,30.27,NNW,336,0.0,4.0,93,0.00,,,0.00,Wunderground v.1.15,2013-11-29 14:15:00,
2013-11-29 09:20:00,20.5,18.8,30.27,NNW,336,0.0,4.0,93,0.00,,,0.00,Wunderground v.1.15,2013-11-29 14:20:00,
2013-11-29 09:25:00,20.4,18.7,30.27,NNW,336,0.0,4.0,93,0.00,,,0.00,Wunderground v.1.15,2013-11-29 14:25:00,
2013-11-29 09:30:00,20.3,18.6,30.27,NNW,336,0.0,4.0,93,0.00,,,0.00,Wunderground v.1.15,2013-11-29 14:30:00,
2013-11-29 09:35:00,20.3,18.6,30.28,NNW,336,0.0,4.0,93,0.00,,,0.00,Wunderground v.1.15,2013-11-29 14:35:00,
2013-11-29 09:40:00,20.6,18.9,30.28,NNW,336,0.0,4.0,93,0.00,,,0.00,Wunderground v.1.15,2013-11-29 14:40:00,
2013-11-29 09:45:00,20.6,18.9,30.28,NNW,336,0.0,4.0,93,0.00,,,0.00,Wunderground v.1.15,2013-11-29 14:45:00,
2013-11-29 09:50:00,20.8,19.1,30.28,NNW,336,0.0,4.0,93,0.00,,,0.00,Wunderground v.1.15,2013-11-29 14:50:00,
2013-11-29 09:56:00,21.0,19.3,30.28,NNW,336,0.0,4.0,93,0.00,,,0.00,Wunderground v.1.15,2013-11-29 14:56:00,
2013-11-29 10:01:00,21.3,19.6,30.29,NNW,336,0.0,4.0,93,0.00,,,0.00,Wunderground v.1.15,2013-11-29 15:01:00,
2013-11-29 10:06:00,21.6,19.9,30.29,NNW,336,0.0,4.0,93,0.00,,,0.00,Wunderground v.1.15,2013-11-29 15:06:00,
2013-11-29 10:11:00,21.6,19.6,30.29,NNW,336,0.0,4.0,92,0.00,,,0.00,Wunderground v.1.15,2013-11-29 15:11:00,
2013-11-29 10:16:00,21.5,19.5,30.29,NNW,336,0.0,4.0,92,0.00,,,0.00,Wunderground v.1.15,2013-11-29 15:16:00,
2013-11-29 10:21:00,21.6,19.6,30.29,NNW,336,0.0,4.0,92,0.00,,,0.00,Wunderground v.1.15,2013-11-29 15:21:00,
2013-11-29 10:26:00,21.9,19.9,30.30,NNW,336,0.0,4.0,92,0.00,,,0.00,Wunderground v.1.15,2013-11-29 15:26:00,
2013-11-29 10:31:00,22.1,20.1,30.30,NNW,336,0.0,4.0,92,0.00,,,0.00,Wunderground v.1.15,2013-11-29 15:31:00,
2013-11-29 10:36:00,22.0,19.8,30.30,NNW,336,0.0,4.0,91,0.00,,,0.00,Wunderground v.1.15,2013-11-29 15:36:00,
2013-11-29 10:41:00,21.8,19.6,30.30,NNW,336,0.0,4.0,91,0.00,,,0.00,Wunderground v.1.15,2013-11-29 15:41:00,
2013-11-29 10:46:00,22.1,19.9,30.30,NNW,336,0.0,4.0,91,0.00,,,0.00,Wunderground v.1.15,2013-11-29 15:46:00,
2013-11-29 10:51:00,22.9,20.9,30.30,NNW,336,0.0,4.0,92,0.00,,,0.00,Wunderground v.1.15,2013-11-29 15:51:00,
2013-11-29 10:56:00,23.4,21.2,30.30,NNW,336,0.0,4.0,91,0.00,,,0.00,Wunderground v.1.15,2013-11-29 15:56:00,
2013-11-29 11:01:00,23.6,21.4,30.30,NNW,338,0.0,4.0,91,0.00,,,0.00,Wunderground v.1.15,2013-11-29 16:01:00,
2013-11-29 11:06:00,23.7,21.2,30.30,NNW,338,0.0,4.0,90,0.00,,,0.00,Wunderground v.1.15,2013-11-29 16:06:00,
2013-11-29 11:11:00,23.5,21.0,30.30,NNW,338,0.0,4.0,90,0.00,,,0.00,Wunderground v.1.15,2013-11-29 16:11:00,
2013-11-29 11:16:00,23.4,20.6,30.29,NNW,338,0.0,4.0,89,0.00,,,0.00,Wunderground v.1.15,2013-11-29 16:16:00,
2013-11-29 11:21:00,23.5,20.7,30.28,NNW,338,0.0,4.0,89,0.00,,,0.00,Wunderground v.1.15,2013-11-29 16:21:00,
2013-11-29 11:26:00,23.5,20.7,30.28,NNW,338,0.0,4.0,89,0.00,,,0.00,Wunderground v.1.15,2013-11-29 16:26:00,
2013-11-29 11:30:00,23.5,20.5,30.28,NNW,338,0.0,4.0,88,0.00,,,0.00,Wunderground v.1.15,2013-11-29 16:30:00,
2013-11-29 11:35:00,23.5,20.5,30.28,NNW,338,0.0,4.0,88,0.00,,,0.00,Wunderground v.1.15,2013-11-29 16:35:00,
2013-11-29 11:40:00,23.7,20.7,30.28,NNW,338,0.0,4.0,88,0.00,,,0.00,Wunderground v.1.15,2013-11-29 16:40:00,
2013-11-29 11:45:00,23.8,20.8,30.27,NW,323,0.0,4.0,88,0.00,,,0.00,Wunderground v.1.15,2013-11-29 16:45:00,
2013-11-29 11:50:00,24.3,21.3,30.27,NNW,339,0.0,4.0,88,0.00,,,0.00,Wunderground v.1.15,2013-11-29 16:50:00,
2013-11-29 11:55:00,24.4,21.4,30.26,NNW,339,0.0,4.0,88,0.00,,,0.00,Wunderground v.1.15,2013-11-29 16:55:00,
2013-11-29 12:00:00,24.1,20.5,30.26,NNW,339,0.0,4.0,86,0.00,,,0.00,Wunderground v.1.15,2013-11-29 17:00:00,
2013-11-29 12:05:00,24.2,20.6,30.27,NNW,339,0.0,4.0,86,0.00,,,0.00,Wunderground v.1.15,2013-11-29 17:05:00,
2013-11-29 12:10:00,24.6,20.5,30.27,NNW,340,0.0,4.0,84,0.00,,,0.00,Wunderground v.1.15,2013-11-29 17:10:00,
2013-11-29 12:15:00,24.6,20.2,30.27,NNW,334,0.0,4.0,83,0.00,,,0.00,Wunderground v.1.15,2013-11-29 17:15:00,
2013-11-29 12:20:00,24.5,19.8,30.28,West,265,0.0,4.0,82,0.00,,,0.00,Wunderground v.1.15,2013-11-29 17:20:00,
2013-11-29 12:25:00,24.5,20.1,30.28,NNW,340,0.0,4.0,83,0.00,,,0.00,Wunderground v.1.15,2013-11-29 17:25:00,
2013-11-29 12:30:00,24.0,19.0,30.28,NNW,342,0.0,4.0,81,0.00,,,0.00,Wunderground v.1.15,2013-11-29 17:30:00,
2013-11-29 12:35:00,23.6,18.6,30.29,NNW,342,0.0,4.0,81,0.00,,,0.00,Wunderground v.1.15,2013-11-29 17:35:00,
2013-11-29 12:40:00,23.3,18.3,30.28,NNW,342,0.0,4.0,81,0.00,,,0.00,Wunderground v.1.15,2013-11-29 17:40:00,
2013-11-29 12:45:00,23.0,17.7,30.29,NNW,340,0.0,4.0,80,0.00,,,0.00,Wunderground v.1.15,2013-11-29 17:45:00,
2013-11-29 12:50:00,23.1,17.8,30.29,NNW,340,0.0,4.0,80,0.00,,,0.00,Wunderground v.1.15,2013-11-29 17:50:00,
2013-11-29 12:55:00,23.1,18.1,30.29,NNW,340,0.0,4.0,81,0.00,,,0.00,Wunderground v.1.15,2013-11-29 17:55:00,
2013-11-29 13:00:00,23.3,18.3,30.29,NNW,340,0.0,4.0,81,0.00,,,0.00,Wunderground v.1.15,2013-11-29 18:00:00,
2013-11-29 13:05:00,23.4,18.4,30.29,NNW,340,0.0,4.0,81,0.00,,,0.00,Wunderground v.1.15,2013-11-29 18:05:00,
2013-11-29 13:10:00,23.6,18.6,30.30,NNW,340,0.0,4.0,81,0.00,,,0.00,Wunderground v.1.15,2013-11-29 18:10:00,
2013-11-29 13:15:00,23.8,18.8,30.29,NNW,340,0.0,4.0,81,0.00,,,0.00,Wunderground v.1.15,2013-11-29 18:15:00,
2013-11-29 13:20:00,24.2,18.9,30.29,SSE,160,0.0,4.0,80,0.00,,,0.00,Wunderground v.1.15,2013-11-29 18:20:00,
2013-11-29 13:25:00,25.0,20.0,30.30,ESE,107,0.0,4.0,81,0.00,,,0.00,Wunderground v.1.15,2013-11-29 18:25:00,
2013-11-29 13:30:00,25.4,19.5,30.30,ENE,63,0.0,4.0,78,0.00,,,0.00,Wunderground v.1.15,2013-11-29 18:30:00,
2013-11-29 13:35:00,25.8,19.9,30.30,ESE,120,0.0,4.0,78,0.00,,,0.00,Wunderground v.1.15,2013-11-29 18:35:00,
2013-11-29 13:41:00,25.8,19.3,30.29,ESE,103,0.0,7.0,76,0.00,,,0.00,Wunderground v.1.15,2013-11-29 18:41:00,
2013-11-29 13:46:00,25.5,19.3,30.29,East,94,2.0,2.0,77,0.00,,,0.00,Wunderground v.1.15,2013-11-29 18:46:00,
2013-11-29 13:51:00,24.5,18.3,30.30,East,80,1.0,4.0,77,0.00,,,0.00,Wunderground v.1.15,2013-11-29 18:51:00,
2013-11-29 13:56:00,24.2,18.9,30.30,East,80,0.0,4.0,80,0.00,,,0.00,Wunderground v.1.15,2013-11-29 18:56:00,
2013-11-29 14:01:00,24.1,19.1,30.30,East,81,0.0,4.0,81,0.00,,,0.00,Wunderground v.1.15,2013-11-29 19:01:00,
2013-11-29 14:06:00,23.9,19.2,30.30,East,83,0.0,4.0,82,0.00,,,0.00,Wunderground v.1.15,2013-11-29 19:06:00,
2013-11-29 14:11:00,24.0,19.6,30.30,East,83,0.0,4.0,83,0.00,,,0.00,Wunderground v.1.15,2013-11-29 19:11:00,
2013-11-29 14:16:00,24.2,19.8,30.30,East,93,0.0,4.0,83,0.00,,,0.00,Wunderground v.1.15,2013-11-29 19:16:00,
2013-11-29 14:21:00,24.2,19.8,30.30,ENE,74,0.0,4.0,83,0.00,,,0.00,Wunderground v.1.15,2013-11-29 19:21:00,
2013-11-29 14:26:00,24.3,19.3,30.30,ENE,69,0.0,4.0,81,0.00,,,0.00,Wunderground v.1.15,2013-11-29 19:26:00,
2013-11-29 14:31:00,24.3,18.7,30.31,NE,46,0.0,4.0,79,0.00,,,0.00,Wunderground v.1.15,2013-11-29 19:31:00,
2013-11-29 14:36:00,24.0,18.1,30.31,East,98,0.0,4.0,78,0.00,,,0.00,Wunderground v.1.15,2013-11-29 19:36:00,
2013-11-29 14:41:00,23.2,17.1,30.31,ENE,76,0.0,4.0,77,0.00,,,0.00,Wunderground v.1.15,2013-11-29 19:41:00,
2013-11-29 14:46:00,22.8,17.0,30.31,East,90,0.0,4.0,78,0.00,,,0.00,Wunderground v.1.15,2013-11-29 19:46:00,
2013-11-29 14:51:00,22.6,16.8,30.32,ENE,72,0.0,4.0,78,0.00,,,0.00,Wunderground v.1.15,2013-11-29 19:51:00,
2013-11-29 14:56:00,22.9,16.8,30.32,ENE,65,0.0,4.0,77,0.00,,,0.00,Wunderground v.1.15,2013-11-29 19:56:00,
2013-11-29 15:01:00,23.3,17.2,30.32,ENE,65,0.0,4.0,77,0.00,,,0.00,Wunderground v.1.15,2013-11-29 20:01:00,
2013-11-29 15:06:00,23.6,17.4,30.32,ENE,65,0.0,4.0,77,0.00,,,0.00,Wunderground v.1.15,2013-11-29 20:06:00,
2013-11-29 15:10:00,23.8,17.6,30.32,ENE,65,0.0,4.0,77,0.00,,,0.00,Wunderground v.1.15,2013-11-29 20:10:00,
2013-11-29 15:15:00,23.7,17.2,30.33,ENE,65,0.0,4.0,76,0.00,,,0.00,Wunderground v.1.15,2013-11-29 20:15:00,
2013-11-29 15:20:00,23.2,16.4,30.32,ENE,73,0.0,4.0,75,0.00,,,0.00,Wunderground v.1.15,2013-11-29 20:20:00,
2013-11-29 15:25:00,22.7,16.0,30.33,SW,226,0.0,4.0,75,0.00,,,0.00,Wunderground v.1.15,2013-11-29 20:25:00,
2013-11-29 15:30:00,22.2,15.5,30.33,East,86,0.0,4.0,75,0.00,,,0.00,Wunderground v.1.15,2013-11-29 20:30:00,
2013-11-29 15:35:00,21.9,15.2,30.33,East,86,0.0,4.0,75,0.00,,,0.00,Wunderground v.1.15,2013-11-29 20:35:00,
2013-11-29 15:40:00,21.6,15.2,30.33,East,86,0.0,4.0,76,0.00,,,0.00,Wunderground v.1.15,2013-11-29 20:40:00,
2013-11-29 15:45:00,21.4,14.7,30.33,North,5,0.0,4.0,75,0.00,,,0.00,Wunderground v.1.15,2013-11-29 20:45:00,
2013-11-29 15:50:00,21.2,14.8,30.34,SW,219,0.0,4.0,76,0.00,,,0.00,Wunderground v.1.15,2013-11-29 20:50:00,
2013-11-29 15:55:00,21.0,14.6,30.34,SSW,213,0.0,4.0,76,0.00,,,0.00,Wunderground v.1.15,2013-11-29 20:55:00,
2013-11-29 16:00:00,20.8,14.4,30.34,ESE,111,0.0,4.0,76,0.00,,,0.00,Wunderground v.1.15,2013-11-29 21:00:00,
2013-11-29 16:05:00,20.6,14.2,30.34,SSE,163,0.0,4.0,76,0.00,,,0.00,Wunderground v.1.15,2013-11-29 21:05:00,
2013-11-29 16:10:00,20.4,14.0,30.34,SSE,163,0.0,4.0,76,0.00,,,0.00,Wunderground v.1.15,2013-11-29 21:10:00,
2013-11-29 16:15:00,20.2,13.8,30.35,SSE,163,0.0,4.0,76,0.00,,,0.00,Wunderground v.1.15,2013-11-29 21:15:00,
2013-11-29 16:20:00,19.9,13.6,30.35,SSE,163,0.0,4.0,76,0.00,,,0.00,Wunderground v.1.15,2013-11-29 21:20:00,
2013-11-29 16:25:00,19.5,13.5,30.35,SSE,163,0.0,4.0,77,0.00,,,0.00,Wunderground v.1.15,2013-11-29 21:25:00,
2013-11-29 16:30:00,19.3,13.3,30.35,SSE,163,0.0,4.0,77,0.00,,,0.00,Wunderground v.1.15,2013-11-29 21:30:00,
2013-11-29 16:35:00,18.8,12.8,30.35,SSE,163,0.0,4.0,77,0.00,,,0.00,Wunderground v.1.15,2013-11-29 21:35:00,
2013-11-29 16:40:00,18.4,12.7,30.35,SSE,163,0.0,4.0,78,0.00,,,0.00,Wunderground v.1.15,2013-11-29 21:40:00,
2013-11-29 16:45:00,17.8,12.4,30.36,SSE,163,0.0,4.0,79,0.00,,,0.00,Wunderground v.1.15,2013-11-29 21:45:00,
2013-11-29 16:50:00,17.6,12.2,30.36,SSE,163,0.0,4.0,79,0.00,,,0.00,Wunderground v.1.15,2013-11-29 21:50:00,
2013-11-29 16:55:00,17.2,12.1,30.36,SSE,163,0.0,4.0,80,0.00,,,0.00,Wunderground v.1.15,2013-11-29 21:55:00,
2013-11-29 17:00:00,17.0,12.2,30.36,SSE,163,0.0,4.0,81,0.00,,,0.00,Wunderground v.1.15,2013-11-29 22:00:00,
2013-11-29 17:05:00,16.7,11.9,30.36,SSE,163,0.0,4.0,81,0.00,,,0.00,Wunderground v.1.15,2013-11-29 22:05:00,
2013-11-29 17:10:00,16.4,11.6,30.36,SSE,163,0.0,4.0,81,0.00,,,0.00,Wunderground v.1.15,2013-11-29 22:10:00,
2013-11-29 17:15:00,16.2,11.4,30.37,SSE,163,0.0,4.0,81,0.00,,,0.00,Wunderground v.1.15,2013-11-29 22:15:00,
2013-11-29 17:20:00,15.8,11.3,30.37,SSE,163,0.0,4.0,82,0.00,,,0.00,Wunderground v.1.15,2013-11-29 22:20:00,
2013-11-29 17:25:00,15.5,11.3,30.37,SSE,163,0.0,4.0,83,0.00,,,0.00,Wunderground v.1.15,2013-11-29 22:25:00,
2013-11-29 17:30:00,15.2,11.0,30.37,SSE,163,0.0,4.0,83,0.00,,,0.00,Wunderground v.1.15,2013-11-29 22:30:00,
2013-11-29 17:35:00,14.9,10.9,30.37,SSE,163,0.0,4.0,84,0.00,,,0.00,Wunderground v.1.15,2013-11-29 22:35:00,
2013-11-29 17:40:00,14.6,10.6,30.38,SSE,163,0.0,4.0,84,0.00,,,0.00,Wunderground v.1.15,2013-11-29 22:40:00,
2013-11-29 17:45:00,14.5,10.5,30.38,SSE,163,0.0,4.0,84,0.00,,,0.00,Wunderground v.1.15,2013-11-29 22:45:00,
2013-11-29 17:50:00,14.3,10.4,30.38,SSE,163,0.0,4.0,84,0.00,,,0.00,Wunderground v.1.15,2013-11-29 22:50:00,
2013-11-29 17:55:00,14.1,10.4,30.38,SSE,163,0.0,4.0,85,0.00,,,0.00,Wunderground v.1.15,2013-11-29 22:55:00,
2013-11-29 18:00:00,13.9,10.2,30.38,SSE,163,0.0,4.0,85,0.00,,,0.00,Wunderground v.1.15,2013-11-29 23:00:00,
2013-11-29 18:05:00,13.6,10.2,30.38,SSE,163,0.0,4.0,86,0.00,,,0.00,Wunderground v.1.15,2013-11-29 23:05:00,
2013-11-29 18:10:00,13.6,10.2,30.38,SSE,163,0.0,4.0,86,0.00,,,0.00,Wunderground v.1.15,2013-11-29 23:10:00,
2013-11-29 18:15:00,13.6,10.2,30.39,SSE,163,0.0,4.0,86,0.00,,,0.00,Wunderground v.1.15,2013-11-29 23:15:00,
2013-11-29 18:20:00,13.4,10.3,30.38,SSE,163,0.0,4.0,87,0.00,,,0.00,Wunderground v.1.15,2013-11-29 23:20:00,
2013-11-29 18:25:00,13.4,10.3,30.38,SSE,163,0.0,4.0,87,0.00,,,0.00,Wunderground v.1.15,2013-11-29 23:25:00,
2013-11-29 18:31:00,13.2,10.1,30.39,SSE,163,0.0,4.0,87,0.00,,,0.00,Wunderground v.1.15,2013-11-29 23:31:00,
2013-11-29 18:36:00,13.2,10.1,30.39,SSE,163,0.0,4.0,87,0.00,,,0.00,Wunderground v.1.15,2013-11-29 23:36:00,
2013-11-29 18:41:00,13.0,9.9,30.39,SSE,163,0.0,4.0,87,0.00,,,0.00,Wunderground v.1.15,2013-11-29 23:41:00,
2013-11-29 18:46:00,12.7,9.6,30.39,SSE,163,0.0,4.0,87,0.00,,,0.00,Wunderground v.1.15,2013-11-29 23:46:00,
2013-11-29 18:50:00,12.6,9.7,30.39,SSE,163,0.0,4.0,88,0.00,,,0.00,Wunderground v.1.15,2013-11-29 23:50:00,
2013-11-29 18:55:00,12.7,9.8,30.39,SSE,163,0.0,4.0,88,0.00,,,0.00,Wunderground v.1.15,2013-11-29 23:55:00,
2013-11-29 19:00:00,12.5,9.6,30.40,SSE,163,0.0,4.0,88,0.00,,,0.00,Wunderground v.1.15,2013-11-30 00:00:00,
2013-11-29 19:06:00,12.2,9.3,30.40,SSE,163,0.0,4.0,88,0.00,,,0.00,Wunderground v.1.15,2013-11-30 00:06:00,
2013-11-29 19:11:00,12.1,9.2,30.40,SSE,163,0.0,4.0,88,0.00,,,0.00,Wunderground v.1.15,2013-11-30 00:11:00,
2013-11-29 19:16:00,12.1,9.2,30.40,SSE,163,0.0,4.0,88,0.00,,,0.00,Wunderground v.1.15,2013-11-30 00:16:00,
2013-11-29 19:21:00,12.0,9.1,30.40,SSE,163,0.0,4.0,88,0.00,,,0.00,Wunderground v.1.15,2013-11-30 00:21:00,
2013-11-29 19:30:00,12.0,9.4,30.40,SSE,163,0.0,4.0,89,0.00,,,0.00,Wunderground v.1.15,2013-11-30 00:30:00,
2013-11-29 19:36:00,12.0,9.4,30.40,SSE,163,0.0,4.0,89,0.00,,,0.00,Wunderground v.1.15,2013-11-30 00:36:00,
2013-11-29 19:41:00,11.9,9.3,30.40,SSE,163,0.0,4.0,89,0.00,,,0.00,Wunderground v.1.15,2013-11-30 00:41:00,
2013-11-29 19:46:00,11.7,8.8,30.40,SSE,163,0.0,4.0,88,0.00,,,0.00,Wunderground v.1.15,2013-11-30 00:46:00,
2013-11-29 19:51:00,11.5,8.9,30.40,SSE,163,0.0,4.0,89,0.00,,,0.00,Wunderground v.1.15,2013-11-30 00:51:00,
2013-11-29 19:56:00,11.4,8.8,30.40,SSE,163,0.0,4.0,89,0.00,,,0.00,Wunderground v.1.15,2013-11-30 00:56:00,
2013-11-29 20:00:00,11.4,8.8,30.40,SSE,163,0.0,4.0,89,0.00,,,0.00,Wunderground v.1.15,2013-11-30 01:00:00,
2013-11-29 20:05:00,11.5,9.1,30.40,SSE,163,0.0,4.0,90,0.00,,,0.00,Wunderground v.1.15,2013-11-30 01:05:00,
2013-11-29 20:11:00,11.5,8.9,30.40,SSE,163,0.0,4.0,89,0.00,,,0.00,Wunderground v.1.15,2013-11-30 01:11:00,
2013-11-29 20:16:00,11.3,8.7,30.40,SSE,163,0.0,4.0,89,0.00,,,0.00,Wunderground v.1.15,2013-11-30 01:16:00,
2013-11-29 20:21:00,11.1,8.5,30.40,SSE,163,0.0,4.0,89,0.00,,,0.00,Wunderground v.1.15,2013-11-30 01:21:00,
2013-11-29 20:26:00,11.2,8.8,30.41,SSE,163,0.0,4.0,90,0.00,,,0.00,Wunderground v.1.15,2013-11-30 01:26:00,
2013-11-29 20:31:00,11.3,8.9,30.41,SSE,163,0.0,4.0,90,0.00,,,0.00,Wunderground v.1.15,2013-11-30 01:31:00,
2013-11-29 20:36:00,11.4,9.0,30.41,SSE,163,0.0,4.0,90,0.00,,,0.00,Wunderground v.1.15,2013-11-30 01:36:00,
2013-11-29 20:46:00,11.4,9.0,30.41,SSE,163,0.0,4.0,90,0.00,,,0.00,Wunderground v.1.15,2013-11-30 01:46:00,
2013-11-29 20:51:00,11.4,9.0,30.41,SSE,163,0.0,4.0,90,0.00,,,0.00,Wunderground v.1.15,2013-11-30 01:51:00,
2013-11-29 20:56:00,11.7,9.6,30.41,SSE,163,0.0,4.0,91,0.00,,,0.00,Wunderground v.1.15,2013-11-30 01:56:00,
2013-11-29 21:01:00,12.1,10.0,30.41,SSE,163,0.0,4.0,91,0.00,,,0.00,Wunderground v.1.15,2013-11-30 02:01:00,
2013-11-29 21:06:00,12.2,9.8,30.41,SSE,163,0.0,4.0,90,0.00,,,0.00,Wunderground v.1.15,2013-11-30 02:06:00,
2013-11-29 21:11:00,12.1,9.7,30.42,SSE,163,0.0,4.0,90,0.00,,,0.00,Wunderground v.1.15,2013-11-30 02:11:00,
2013-11-29 21:16:00,11.9,9.5,30.42,SSE,163,0.0,4.0,90,0.00,,,0.00,Wunderground v.1.15,2013-11-30 02:16:00,
2013-11-29 21:21:00,12.2,10.1,30.42,SSE,163,0.0,4.0,91,0.00,,,0.00,Wunderground v.1.15,2013-11-30 02:21:00,
2013-11-29 21:26:00,12.3,9.9,30.42,SSE,163,0.0,4.0,90,0.00,,,0.00,Wunderground v.1.15,2013-11-30 02:26:00,
2013-11-29 21:31:00,12.5,10.4,30.42,SSE,163,0.0,4.0,91,0.00,,,0.00,Wunderground v.1.15,2013-11-30 02:31:00,
2013-11-29 21:36:00,12.7,10.6,30.42,SSE,163,0.0,4.0,91,0.00,,,0.00,Wunderground v.1.15,2013-11-30 02:36:00,
2013-11-29 21:41:00,12.8,10.7,30.42,SSE,163,0.0,4.0,91,0.00,,,0.00,Wunderground v.1.15,2013-11-30 02:41:00,
2013-11-29 21:45:00,13.1,11.0,30.42,SSE,163,0.0,4.0,91,0.00,,,0.00,Wunderground v.1.15,2013-11-30 02:45:00,
2013-11-29 21:50:00,13.1,11.0,30.42,SSE,163,0.0,4.0,91,0.00,,,0.00,Wunderground v.1.15,2013-11-30 02:50:00,
2013-11-29 21:55:00,12.9,10.5,30.42,SSE,163,0.0,4.0,90,0.00,,,0.00,Wunderground v.1.15,2013-11-30 02:55:00,
2013-11-29 22:00:00,12.5,9.9,30.42,SSE,163,0.0,4.0,89,0.00,,,0.00,Wunderground v.1.15,2013-11-30 03:00:00,
2013-11-29 22:05:00,12.6,10.5,30.42,SSE,163,0.0,4.0,91,0.00,,,0.00,Wunderground v.1.15,2013-11-30 03:05:00,
2013-11-29 22:10:00,12.8,10.7,30.42,SSE,163,0.0,4.0,91,0.00,,,0.00,Wunderground v.1.15,2013-11-30 03:10:00,
2013-11-29 22:20:00,12.5,10.4,30.42,SSE,163,0.0,4.0,91,0.00,,,0.00,Wunderground v.1.15,2013-11-30 03:20:00,
2013-11-29 22:25:00,12.5,10.1,30.42,SSE,163,0.0,4.0,90,0.00,,,0.00,Wunderground v.1.15,2013-11-30 03:25:00,
2013-11-29 22:30:00,12.6,10.5,30.42,SSE,163,0.0,4.0,91,0.00,,,0.00,Wunderground v.1.15,2013-11-30 03:30:00,
2013-11-29 22:35:00,12.6,10.5,30.42,SSE,163,0.0,4.0,91,0.00,,,0.00,Wunderground v.1.15,2013-11-30 03:35:00,
2013-11-29 22:40:00,12.6,10.5,30.42,SSE,163,0.0,4.0,91,0.00,,,0.00,Wunderground v.1.15,2013-11-30 03:40:00,
2013-11-29 22:45:00,12.7,10.6,30.42,SSE,163,0.0,4.0,91,0.00,,,0.00,Wunderground v.1.15,2013-11-30 03:45:00,
2013-11-29 22:55:00,12.5,10.1,30.43,SSE,163,0.0,4.0,90,0.00,,,0.00,Wunderground v.1.15,2013-11-30 03:55:00,
2013-11-29 23:00:00,12.5,10.1,30.43,SSE,163,0.0,4.0,90,0.00,,,0.00,Wunderground v.1.15,2013-11-30 04:00:00,
2013-11-29 23:05:00,12.9,11.0,30.43,SSE,163,0.0,4.0,92,0.00,,,0.00,Wunderground v.1.15,2013-11-30 04:05:00,
2013-11-29 23:10:00,13.1,11.0,30.43,SSE,163,0.0,4.0,91,0.00,,,0.00,Wunderground v.1.15,2013-11-30 04:10:00,
2013-11-29 23:15:00,13.2,11.1,30.43,SSE,163,0.0,4.0,91,0.00,,,0.00,Wunderground v.1.15,2013-11-30 04:15:00,
2013-11-29 23:25:00,12.5,9.9,30.43,SSE,163,0.0,4.0,89,0.00,,,0.00,Wunderground v.1.15,2013-11-30 04:25:00,
2013-11-29 23:30:00,11.8,8.9,30.43,SSE,163,0.0,4.0,88,0.00,,,0.00,Wunderground v.1.15,2013-11-30 04:30:00,
2013-11-29 23:35:00,11.3,8.7,30.43,SSE,163,0.0,4.0,89,0.00,,,0.00,Wunderground v.1.15,2013-11-30 04:35:00,
2013-11-29 23:40:00,11.0,8.6,30.43,SSE,163,0.0,4.0,90,0.00,,,0.00,Wunderground v.1.15,2013-11-30 04:40:00,
2013-11-29 23:45:00,11.0,8.6,30.43,SSE,163,0.0,4.0,90,0.00,,,0.00,Wunderground v.1.15,2013-11-30 04:45:00,
2013-11-29 23:50:00,10.9,8.5,30.43,SSE,163,0.0,4.0,90,0.00,,,0.00,Wunderground v.1.15,2013-11-30 04:50:00,
2013-11-29 23:55:00,10.8,8.4,30.43,SSE,163,0.0,4.0,90,0.00,,,0.00,Wunderground v.1.15,2013-11-30 04:55:00,